LiveATC.Net - Listen to live air traffic control over the Internet!


ICAO: EPKK  IATA: KRK   Airport: John Paul II Balice International Airport
City: Krakow
Country: Poland   Continent: Europe
EPKK METAR Weather: EPKK 240800Z 06008KT CAVOK 20/15 Q1025
EPKK Flight Activity (FlightAware)

EPKK Tower/App
Feed Status: UP   Listeners: 3
Listen in your browser - HTML5 player (in browser, HTML5)
Click here to listen with your own player (launches your MP3 player)
EPKK Tower/App Audio Archives
FacilityFrequency
Krakow Approach121.075
Krakow Approach123.258
Krakow Tower123.250

NOTICE

Unauthorized use prohibited. See LiveATC.net Terms of Service


Airport/ARTCC Code
Frequency Search
(e.g., 124.400, 128.75)
Site-wide search
 


Browse LiveATC Feeds
Top 50 LiveATC Feeds
LiveATC Feed Map
Bad Weather Areas

LiveATC FAQ
Offer LiveATC feed
Contact LiveATC.net
Press Inquiries

LiveATC on iPhone
LiveATC on Android

Windows Phone
Windows 8/10

LiveATC Mobile
(Mobile browser)

ATC Audio Archives
Interesting Recordings

LiveATC Forums


Home Page
About LiveATC.net
Make a Donation
Terms of Use
Privacy Policy

Canadian Air Freqs

AIRMETs/SIGMETs

FAA Airport Status
Nat'l Airspace Status
Arrival Demand Charts


Server Software By:
Icecast.org
Liquidsoap